To NAV CANADA Home Page Login to a new session Search on AWWS site Feedback and Comments Disclaimer Vers la page française équivalente Tips FAQ What's new on the site To the Forecasts and Observations / NOTAM section To "File a Flight Plan" website Publications and other links Update of the User's profile FIC Telephone Numbers My Weather Data Folder Route Weather Data Regional Weather Data Local Weather Data To the Forecasts and Observations / NOTAM section
Request Generated 12/10/2016 at 16:29:37 UTC . Weather information available at that time is displayed.

METAR/TAF

MARYS HARBOUR/NL    (show WxCam)

SPECI CYMH 101602Z AUTO 30019G35KT 9SM CLR M05/M10 A2929 RMK SLP921=
METAR CYMH 101600Z AUTO 31023G35KT 9SM -SN CLR M05/M09 A2929 RMK
SLP921=
SPECI CYMH 101551Z AUTO 30022G35KT 8SM -SN FEW028 M05/M09 A2929 RMK
SLP921=
SPECI CYMH 101540Z AUTO 30023G35KT 9SM FEW028 M05/M09 A2928 RMK
SLP919=
SPECI CYMH 101530Z AUTO 29023G34KT 9SM -SN SCT028 M04/M09 A2929 RMK
SLP921=
SPECI CYMH 101518Z AUTO 29020G32KT 9SM SCT028 M04/M09 A2929 RMK
SLP921=
SPECI CYMH 101504Z AUTO 30017G32KT 9SM -SN SCT028 M04/M09 A2929 RMK
SLP920=
SPECI CYMH 101503Z AUTO 30020G32KT 9SM BKN028 M04/M09 A2929 RMK
SLP920=
METAR CYMH 101500Z AUTO 30024G31KT 9SM -SN BKN028 M04/M09 A2928 RMK
SLP919=
SPECI CYMH 101437Z AUTO 30021G35KT 7SM -SN BKN028 M04/M08 A2928 RMK
SLP919=
SPECI CYMH 101416Z AUTO 29022G30KT 9SM BKN028 M04/M08 A2928 RMK
SLP917=
SPECI CYMH 101405Z AUTO 30022G30KT 9SM -SN BKN028 M04/M08 A2928 RMK
SLP917=
SPECI CYMH 101402Z AUTO 30021G30KT 9SM SCT028 M04/M08 A2928 RMK
SLP917=
METAR CYMH 101400Z AUTO 29021G30KT 9SM -SN SCT028 M04/M08 A2928 RMK
SLP917=

TAF CYMH 101339Z 1014/1102 29020G35KT P6SM SCT020 OVC050 TEMPO
1014/1102 5SM -SHSN OVC020 PROB40 1014/1102 2SM -SHSN
RMK FCST BASED ON AUTO OBS. NXT FCST BY 102000Z=
Your time UTC time
Weather data provided by Environment Canada and NAV CANADA